Time;durP1;ratioP1;P1;durP2;ratioP2;P2;SDS_P1;SDS_P2;PMS_P1;PMS_P2;Temp;Humidity;BMP_temperature;BMP_pressure;BME280_temperature;BME280_humidity;BME280_pressure;Samples;Min_cycle;Max_cycle;Signal;HPM_P1;HPM_P2
2022/02/17 00:01:10;;;;;;;0.40;0.30;;;19.20;49.10;;;;;;6146660;29;20106;-67
2022/02/17 00:04:11;;;;;;;0.38;0.20;;;19.10;49.00;;;;;;6146393;29;20023;-67
2022/02/17 00:07:11;;;;;;;0.15;0.15;;;19.10;49.00;;;;;;6158682;28;20448;-67
2022/02/17 00:10:12;;;;;;;0.28;0.28;;;19.10;49.00;;;;;;6170345;28;20023;-65
2022/02/17 00:13:12;;;;;;;0.40;0.20;;;19.10;49.00;;;;;;6170447;28;20030;-67
2022/02/17 00:16:13;;;;;;;0.13;0.13;;;19.20;49.10;;;;;;6170308;28;20332;-67
2022/02/17 00:19:14;;;;;;;0.20;0.20;;;19.10;49.00;;;;;;6170183;28;20031;-67
2022/02/17 00:22:14;;;;;;;0.60;0.20;;;19.10;49.00;;;;;;6169698;28;20038;-67
2022/02/17 00:25:15;;;;;;;0.20;0.10;;;19.10;49.00;;;;;;6169380;28;20034;-67
2022/02/17 00:28:16;;;;;;;0.30;0.30;;;19.10;49.10;;;;;;6170127;28;20057;-67
2022/02/17 00:31:17;;;;;;;0.57;0.30;;;19.10;49.20;;;;;;6169857;28;20403;-67
2022/02/17 00:34:17;;;;;;;0.95;0.13;;;19.10;49.10;;;;;;6150115;28;20053;-67
2022/02/17 00:37:18;;;;;;;0.30;0.20;;;19.10;49.20;;;;;;6146332;28;20419;-67
2022/02/17 00:40:18;;;;;;;0.10;0.10;;;19.10;49.20;;;;;;6146420;28;20114;-67
2022/02/17 00:43:19;;;;;;;0.17;0.13;;;19.10;49.20;;;;;;6145800;28;20023;-67
2022/02/17 00:46:19;;;;;;;0.40;0.10;;;19.10;49.20;;;;;;6163830;28;20027;-67
2022/02/17 00:49:20;;;;;;;0.10;0.10;;;19.10;49.20;;;;;;6170059;28;20070;-67
2022/02/17 00:52:20;;;;;;;1.40;0.20;;;19.10;49.20;;;;;;6169825;28;20089;-67
2022/02/17 00:55:21;;;;;;;0.20;0.13;;;19.10;49.20;;;;;;6169412;28;20057;-67
2022/02/17 00:58:21;;;;;;;0.15;0.15;;;19.10;49.20;;;;;;6169614;28;20058;-67
2022/02/17 01:01:22;;;;;;;0.10;0.10;;;19.10;49.20;;;;;;6169578;28;20042;-67
2022/02/17 01:04:23;;;;;;;0.30;0.20;;;19.10;49.30;;;;;;6171589;28;20070;-67
2022/02/17 01:07:24;;;;;;;0.17;0.17;;;19.20;49.40;;;;;;6174442;28;20027;-67
2022/02/17 01:10:24;;;;;;;0.20;0.10;;;19.20;49.40;;;;;;6174458;28;20089;-67
2022/02/17 01:13:25;;;;;;;0.10;0.10;;;19.20;49.30;;;;;;6174539;28;20038;-67
2022/02/17 01:16:26;;;;;;;0.20;0.20;;;19.10;49.30;;;;;;6174167;28;20050;-67
2022/02/17 01:19:26;;;;;;;0.30;0.20;;;19.20;49.40;;;;;;6174402;28;20035;-68
2022/02/17 01:22:27;;;;;;;0.28;0.20;;;19.10;49.30;;;;;;6174066;28;20401;-67
2022/02/17 01:25:27;;;;;;;0.45;0.30;;;19.10;49.30;;;;;;6174090;28;20050;-67
2022/02/17 01:28:28;;;;;;;0.10;0.10;;;19.10;49.30;;;;;;6173703;28;20027;-66
2022/02/17 01:31:29;;;;;;;0.35;0.25;;;19.10;49.30;;;;;;6174041;28;20150;-68
2022/02/17 01:34:30;;;;;;;0.47;0.30;;;19.10;49.20;;;;;;6152862;28;20566;-67
2022/02/17 01:37:30;;;;;;;0.65;0.38;;;19.10;49.20;;;;;;6150477;28;20042;-67
2022/02/17 01:40:35;;;;;;;0.20;0.15;;;19.10;49.20;;;;;;6149966;28;20027;-67
2022/02/17 01:43:36;;;;;;;0.20;0.20;;;19.10;49.20;;;;;;6149941;28;20046;-67
2022/02/17 01:46:39;;;;;;;0.22;0.20;;;19.10;49.20;;;;;;6149656;29;20031;-67
2022/02/17 01:49:41;;;;;;;0.32;0.20;;;19.10;49.20;;;;;;6150189;29;20371;-67
2022/02/17 01:52:42;;;;;;;0.50;0.25;;;19.10;49.20;;;;;;6149507;29;20024;-67
2022/02/17 01:55:47;;;;;;;0.30;0.20;;;19.10;49.20;;;;;;6149281;29;20473;-68
2022/02/17 01:58:48;;;;;;;0.60;0.20;;;19.10;49.20;;;;;;6149401;29;20114;-68
2022/02/17 02:01:49;;;;;;;0.73;0.40;;;19.10;49.20;;;;;;6156212;28;20121;-68
2022/02/17 02:04:50;;;;;;;0.75;0.30;;;19.10;49.20;;;;;;6173161;28;20081;-68
2022/02/17 02:07:51;;;;;;;0.90;0.30;;;19.10;49.20;;;;;;6173237;28;20035;-67
2022/02/17 02:10:52;;;;;;;0.30;0.30;;;19.10;49.20;;;;;;6173906;28;20564;-67
2022/02/17 02:13:52;;;;;;;0.60;0.38;;;19.10;49.20;;;;;;6172329;28;20453;-67
2022/02/17 02:16:54;;;;;;;0.25;0.20;;;19.10;49.20;;;;;;6173046;28;20110;-67
2022/02/17 02:19:57;;;;;;;0.45;0.20;;;19.10;49.20;;;;;;6173110;28;20174;-67
2022/02/17 02:22:57;;;;;;;0.63;0.28;;;19.10;49.20;;;;;;6172936;28;20409;-68
2022/02/17 02:25:58;;;;;;;0.60;0.30;;;19.10;49.20;;;;;;6172981;28;20027;-67
2022/02/17 02:29:02;;;;;;;0.30;0.20;;;19.10;49.20;;;;;;6172914;28;20375;-67
2022/02/17 02:32:03;;;;;;;0.35;0.20;;;19.10;49.20;;;;;;6171103;28;20118;-67
2022/02/17 02:35:04;;;;;;;0.45;0.30;;;19.10;49.20;;;;;;6148642;28;20032;-67
2022/02/17 02:38:05;;;;;;;1.58;0.20;;;19.10;49.20;;;;;;6148711;28;20522;-67
2022/02/17 02:41:06;;;;;;;0.20;0.20;;;19.10;49.20;;;;;;6148559;28;20027;-67
2022/02/17 02:44:06;;;;;;;0.40;0.25;;;19.10;49.20;;;;;;6148177;29;20050;-67
2022/02/17 02:47:07;;;;;;;0.60;0.30;;;19.10;49.20;;;;;;6148591;29;20027;-67
2022/02/17 02:50:08;;;;;;;0.47;0.30;;;19.10;49.20;;;;;;6148270;29;20126;-67
2022/02/17 02:53:14;;;;;;;1.30;0.50;;;19.10;49.10;;;;;;6148093;29;20487;-68
2022/02/17 02:56:15;;;;;;;0.88;0.28;;;19.10;49.20;;;;;;6147776;29;20047;-67
2022/02/17 02:59:15;;;;;;;0.57;0.20;;;19.10;49.10;;;;;;6148089;29;20094;-67
2022/02/17 03:02:16;;;;;;;0.38;0.30;;;19.10;49.20;;;;;;6147986;29;20023;-67
2022/02/17 03:05:16;;;;;;;0.68;0.32;;;19.10;49.10;;;;;;6148014;29;20027;-68
2022/02/17 03:08:17;;;;;;;0.75;0.30;;;19.10;49.20;;;;;;6168679;28;20328;-67
2022/02/17 03:11:17;;;;;;;1.15;0.38;;;19.10;49.10;;;;;;6172054;28;20060;-67
2022/02/17 03:14:18;;;;;;;1.77;0.50;;;19.10;49.20;;;;;;6172050;28;20109;-68
2022/02/17 03:17:18;;;;;;;0.75;0.32;;;19.10;49.10;;;;;;6171790;28;20390;-67
2022/02/17 03:20:20;;;;;;;0.28;0.28;;;19.10;49.20;;;;;;6171732;28;20390;-68
2022/02/17 03:23:21;;;;;;;0.52;0.30;;;19.10;49.20;;;;;;6171309;28;20094;-67
2022/02/17 03:26:21;;;;;;;0.88;0.30;;;19.10;49.10;;;;;;6170809;28;20052;-68
2022/02/17 03:29:22;;;;;;;0.68;0.30;;;19.10;49.10;;;;;;6171606;28;20019;-67
2022/02/17 03:32:22;;;;;;;0.43;0.30;;;19.10;49.20;;;;;;6167252;28;20118;-68
2022/02/17 03:35:23;;;;;;;0.95;0.40;;;19.10;49.10;;;;;;6147221;28;20050;-68
2022/02/17 03:38:23;;;;;;;0.45;0.45;;;19.10;49.10;;;;;;6147102;28;20027;-67
2022/02/17 03:41:24;;;;;;;0.90;0.32;;;19.10;49.10;;;;;;6146972;28;20392;-67
2022/02/17 03:44:24;;;;;;;0.80;0.30;;;19.10;49.10;;;;;;6146274;29;20027;-67
2022/02/17 03:47:25;;;;;;;1.50;0.40;;;19.10;49.10;;;;;;6146874;29;20080;-68
2022/02/17 03:50:26;;;;;;;0.70;0.30;;;19.10;49.10;;;;;;6146798;29;20031;-67
2022/02/17 03:53:26;;;;;;;0.95;0.30;;;19.10;49.20;;;;;;6146194;29;20027;-67
2022/02/17 03:56:27;;;;;;;1.73;0.40;;;19.10;49.10;;;;;;6146205;29;20047;-68
2022/02/17 03:59:27;;;;;;;0.30;0.20;;;19.10;49.10;;;;;;6146861;29;20118;-67
2022/02/17 04:02:28;;;;;;;1.08;0.50;;;19.10;49.10;;;;;;6146821;29;20047;-67
2022/02/17 04:05:28;;;;;;;1.73;0.40;;;19.10;49.10;;;;;;6146320;29;20066;-67
2022/02/17 04:08:29;;;;;;;0.73;0.20;;;19.10;49.10;;;;;;6169144;28;20026;-67
2022/02/17 04:11:30;;;;;;;0.47;0.30;;;19.10;49.10;;;;;;6170545;28;20663;-67
2022/02/17 04:14:30;;;;;;;0.30;0.28;;;19.10;49.00;;;;;;6170140;28;20045;-67
2022/02/17 04:17:31;;;;;;;1.85;0.57;;;19.10;49.10;;;;;;6170499;28;20109;-67
2022/02/17 04:20:31;;;;;;;0.43;0.30;;;19.10;49.00;;;;;;6170336;28;20430;-67
2022/02/17 04:23:32;;;;;;;1.08;0.50;;;19.10;49.00;;;;;;6170541;28;20098;-67
2022/02/17 04:26:32;;;;;;;0.95;0.30;;;19.10;49.00;;;;;;6170449;28;20111;-66
2022/02/17 04:29:34;;;;;;;0.63;0.32;;;19.10;49.00;;;;;;6170306;28;20066;-67
2022/02/17 04:32:34;;;;;;;0.50;0.30;;;19.10;49.00;;;;;;6164150;28;20034;-68
2022/02/17 04:35:35;;;;;;;1.10;0.40;;;19.10;49.00;;;;;;6146171;28;20027;-67
2022/02/17 04:38:35;;;;;;;0.57;0.28;;;19.10;49.10;;;;;;6145929;28;20084;-67
2022/02/17 04:42:36;;;;;;;0.50;0.32;;;19.10;49.00;;;;;;6145886;28;20111;-67
2022/02/17 04:45:07;;;;;;;1.58;0.80;;;19.10;49.00;;;;;;6140837;29;20040;-67
2022/02/17 04:48:08;;;;;;;1.10;0.35;;;19.10;49.00;;;;;;6146023;29;20464;-67
2022/02/17 04:51:09;;;;;;;0.80;0.30;;;19.10;49.00;;;;;;6145786;29;20039;-66
2022/02/17 04:54:09;;;;;;;1.13;0.50;;;19.10;48.90;;;;;;6145543;29;20122;-67
2022/02/17 04:57:10;;;;;;;0.85;0.47;;;19.10;48.90;;;;;;6144294;29;20061;-67
2022/02/17 05:00:39;;;;;;;0.52;0.30;;;19.10;49.00;;;;;;6145693;29;20027;-67
2022/02/17 05:03:39;;;;;;;0.70;0.40;;;19.10;49.00;;;;;;6143588;29;20451;-67
2022/02/17 05:06:40;;;;;;;0.65;0.35;;;19.10;49.00;;;;;;6153651;28;20082;-68
2022/02/17 05:09:40;;;;;;;0.55;0.40;;;19.10;48.90;;;;;;6169707;28;20114;-68
2022/02/17 05:12:41;;;;;;;0.88;0.30;;;19.10;48.90;;;;;;6169402;28;20019;-67
2022/02/17 05:15:43;;;;;;;1.10;0.60;;;19.10;49.50;;;;;;6169685;28;20035;-68
2022/02/17 05:18:43;;;;;;;1.42;0.60;;;19.10;48.90;;;;;;6169698;28;20069;-68
2022/02/17 05:21:44;;;;;;;0.85;0.30;;;19.10;48.90;;;;;;6169962;28;20477;-67
2022/02/17 05:24:44;;;;;;;0.82;0.30;;;19.10;48.90;;;;;;6169216;28;20031;-67
2022/02/17 05:27:45;;;;;;;1.25;0.40;;;19.10;48.90;;;;;;6169694;28;20027;-68
2022/02/17 05:30:45;;;;;;;0.80;0.30;;;19.10;48.80;;;;;;6169092;28;20041;-67
2022/02/17 05:33:46;;;;;;;0.73;0.32;;;19.10;48.80;;;;;;6154433;28;20085;-68
2022/02/17 05:36:46;;;;;;;0.65;0.38;;;19.10;48.80;;;;;;6145435;28;20063;-68
2022/02/17 05:39:47;;;;;;;1.48;0.50;;;19.10;48.80;;;;;;6145343;28;20387;-68
2022/02/17 05:42:47;;;;;;;1.38;0.52;;;19.10;48.80;;;;;;6145608;28;20035;-67
2022/02/17 05:45:48;;;;;;;0.50;0.30;;;19.10;48.80;;;;;;6145385;29;20026;-67
2022/02/17 05:48:48;;;;;;;0.57;0.45;;;19.10;48.70;;;;;;6145075;28;20115;-68
2022/02/17 05:51:49;;;;;;;0.80;0.40;;;19.10;48.70;;;;;;6149813;29;20027;-67
2022/02/17 05:54:49;;;;;;;0.30;0.30;;;19.10;48.80;;;;;;6163262;28;20510;-68
2022/02/17 05:57:50;;;;;;;0.60;0.40;;;19.10;48.80;;;;;;6173199;28;20030;-67
2022/02/17 06:00:51;;;;;;;0.82;0.40;;;19.10;48.80;;;;;;6171977;28;20039;-67
2022/02/17 06:03:51;;;;;;;0.77;0.40;;;19.10;48.80;;;;;;6149415;28;20038;-68
2022/02/17 06:06:52;;;;;;;1.25;0.30;;;19.10;48.80;;;;;;6158180;28;20031;-67
2022/02/17 06:09:52;;;;;;;0.70;0.45;;;19.10;48.80;;;;;;6173111;28;20478;-68
2022/02/17 06:12:53;;;;;;;1.20;0.45;;;19.10;48.80;;;;;;6172854;28;20027;-67
2022/02/17 06:15:53;;;;;;;1.88;0.50;;;19.10;48.80;;;;;;6172874;28;20504;-67
2022/02/17 06:18:54;;;;;;;1.02;0.50;;;19.10;48.80;;;;;;6173176;28;20078;-67
2022/02/17 06:21:54;;;;;;;1.23;0.40;;;19.10;48.80;;;;;;6173094;28;20031;-68
2022/02/17 06:24:55;;;;;;;1.63;0.50;;;19.10;48.70;;;;;;6172648;28;20031;-67
2022/02/17 06:27:57;;;;;;;1.38;0.60;;;19.10;48.70;;;;;;6172831;28;20031;-68
2022/02/17 06:30:58;;;;;;;0.95;0.40;;;19.10;48.70;;;;;;6172803;28;20031;-67
2022/02/17 06:33:59;;;;;;;1.45;0.45;;;19.10;48.70;;;;;;6155370;28;20053;-67
2022/02/17 06:36:59;;;;;;;3.22;0.77;;;19.10;48.70;;;;;;6148895;28;20023;-67
2022/02/17 06:39:59;;;;;;;1.85;0.70;;;19.10;48.60;;;;;;6148435;28;20107;-68
2022/02/17 06:43:05;;;;;;;1.73;0.65;;;19.10;48.60;;;;;;6148252;28;20039;-67
2022/02/17 06:46:07;;;;;;;2.28;0.60;;;19.10;48.60;;;;;;6148647;29;20036;-67
2022/02/17 06:49:08;;;;;;;1.67;0.50;;;19.10;48.50;;;;;;6148538;29;20482;-68
2022/02/17 06:52:08;;;;;;;0.88;0.55;;;19.10;49.10;;;;;;6148320;29;20034;-67
2022/02/17 06:55:09;;;;;;;2.10;0.50;;;19.10;48.40;;;;;;6147975;29;20495;-67
2022/02/17 06:58:10;;;;;;;1.98;0.70;;;19.20;48.50;;;;;;6148324;29;20026;-67
2022/02/17 07:01:11;;;;;;;1.65;0.70;;;19.10;48.40;;;;;;6161135;28;20031;-68
2022/02/17 07:04:11;;;;;;;2.20;0.98;;;19.10;48.40;;;;;;6173938;28;20070;-68
2022/02/17 07:07:12;;;;;;;2.40;1.00;;;19.10;48.40;;;;;;6174128;28;20507;-68
2022/02/17 07:10:12;;;;;;;2.35;0.70;;;19.10;48.40;;;;;;6174210;28;20026;-67
2022/02/17 07:13:13;;;;;;;4.78;1.20;;;19.10;48.40;;;;;;6160990;28;20022;-67
2022/02/17 07:16:14;;;;;;;3.67;0.80;;;19.10;48.30;;;;;;6172456;28;20114;-67
2022/02/17 07:19:14;;;;;;;1.40;0.60;;;19.10;48.40;;;;;;6170951;28;20041;-67
2022/02/17 07:22:15;;;;;;;4.28;1.33;;;19.10;48.40;;;;;;6172524;28;20363;-67
2022/02/17 07:25:15;;;;;;;2.28;0.70;;;19.20;48.40;;;;;;6172785;28;20038;-68
2022/02/17 07:28:17;;;;;;;1.73;0.80;;;19.20;48.40;;;;;;6172627;28;20023;-68
2022/02/17 07:31:17;;;;;;;3.85;0.93;;;19.10;48.20;;;;;;6172645;28;20077;-67
2022/02/17 07:34:20;;;;;;;2.10;0.70;;;19.10;48.30;;;;;;6152807;28;20031;-68
2022/02/17 07:37:21;;;;;;;5.28;0.82;;;19.10;48.30;;;;;;6149130;28;20035;-67
2022/02/17 07:40:22;;;;;;;2.53;1.00;;;19.10;48.30;;;;;;6148498;28;20023;-67
2022/02/17 07:43:22;;;;;;;3.67;1.15;;;19.20;48.50;;;;;;6168268;28;20035;-67
2022/02/17 07:46:23;;;;;;;1.90;0.90;;;19.20;48.40;;;;;;6172422;28;20371;-68
2022/02/17 07:49:23;;;;;;;4.28;1.10;;;19.20;48.50;;;;;;6163582;28;20053;-67
2022/02/17 07:52:24;;;;;;;4.60;1.08;;;19.20;48.40;;;;;;6171689;28;20027;-67
2022/02/17 07:55:25;;;;;;;3.55;1.00;;;19.20;48.40;;;;;;6171609;28;20051;-67
2022/02/17 07:58:26;;;;;;;3.35;0.93;;;19.10;48.30;;;;;;6163605;28;20351;-67
2022/02/17 08:01:27;;;;;;;2.42;1.00;;;19.20;48.40;;;;;;6171917;28;20057;-67
2022/02/17 08:04:27;;;;;;;3.10;1.05;;;19.20;48.40;;;;;;6171841;28;20026;-67
2022/02/17 08:07:30;;;;;;;5.03;1.33;;;19.10;48.20;;;;;;6171204;28;20488;-68
2022/02/17 08:10:30;;;;;;;2.63;0.73;;;19.20;48.30;;;;;;6171669;28;20390;-67
2022/02/17 08:13:31;;;;;;;4.32;1.33;;;19.10;48.30;;;;;;6169974;28;20039;-67
2022/02/17 08:16:33;;;;;;;3.20;1.00;;;19.20;48.30;;;;;;6171808;28;20033;-68
2022/02/17 08:19:35;;;;;;;1.75;0.90;;;19.20;48.40;;;;;;6171811;28;20375;-68
2022/02/17 08:22:35;;;;;;;5.00;1.08;;;19.10;48.30;;;;;;6165926;28;20035;-67
2022/02/17 08:25:35;;;;;;;3.25;1.10;;;19.20;48.40;;;;;;6147793;28;20051;-67
2022/02/17 08:28:36;;;;;;;2.50;0.90;;;19.20;48.30;;;;;;6170787;28;20045;-68
2022/02/17 08:31:37;;;;;;;2.35;1.05;;;19.10;48.30;;;;;;6170934;28;20085;-67
2022/02/17 08:34:37;;;;;;;3.08;1.10;;;19.20;48.40;;;;;;6149420;28;20045;-67
2022/02/17 08:37:39;;;;;;;3.08;1.08;;;19.20;48.40;;;;;;6147907;28;20081;-68
2022/02/17 08:40:40;;;;;;;3.58;1.02;;;19.20;48.40;;;;;;6147676;28;20027;-68
2022/02/17 08:43:41;;;;;;;2.95;0.90;;;19.20;48.30;;;;;;6190828;28;20033;-67
2022/02/17 08:46:41;;;;;;;8.30;1.08;;;19.20;48.30;;;;;;6194997;28;20425;-68
2022/02/17 08:49:42;;;;;;;7.55;1.00;;;19.20;48.20;;;;;;6195079;28;20098;-69
2022/02/17 08:52:42;;;;;;;3.28;1.08;;;19.20;48.20;;;;;;6194515;28;20026;-68
2022/02/17 08:55:43;;;;;;;7.93;1.55;;;19.10;48.20;;;;;;6191018;28;20133;-67
2022/02/17 08:58:44;;;;;;;8.05;1.50;;;19.20;48.10;;;;;;6195458;28;20034;-68
2022/02/17 09:01:44;;;;;;;6.28;1.67;;;19.10;47.50;;;;;;6195386;28;20026;-68
2022/02/17 09:04:45;;;;;;;5.55;1.23;;;19.10;45.90;;;;;;6195356;28;20026;-68
2022/02/17 09:07:45;;;;;;;6.28;1.20;;;19.20;46.40;;;;;;6176895;28;20070;-67
2022/02/17 09:10:46;;;;;;;5.85;1.60;;;19.20;46.80;;;;;;6170813;28;20062;-68
2022/02/17 09:13:46;;;;;;;6.40;1.60;;;19.20;47.10;;;;;;6170611;28;20497;-68
2022/02/17 09:16:47;;;;;;;4.13;1.42;;;19.20;47.00;;;;;;6170792;28;20026;-68
2022/02/17 09:19:47;;;;;;;5.32;1.35;;;19.10;46.90;;;;;;6170858;28;20062;-68
2022/02/17 09:22:48;;;;;;;2.83;1.17;;;19.20;47.00;;;;;;6170427;28;20482;-68
2022/02/17 09:25:48;;;;;;;7.53;1.83;;;19.20;47.20;;;;;;6173857;28;20023;-68
2022/02/17 09:28:49;;;;;;;7.68;1.05;;;19.20;47.30;;;;;;6175506;28;20051;-68
2022/02/17 09:31:49;;;;;;;4.18;1.30;;;19.20;47.30;;;;;;6175639;28;20074;-68
2022/02/17 09:34:50;;;;;;;2.85;1.15;;;19.20;47.40;;;;;;6174533;28;20043;-68
2022/02/17 09:37:51;;;;;;;3.15;1.17;;;19.20;47.30;;;;;;6175779;28;20375;-68
2022/02/17 09:40:52;;;;;;;5.70;1.45;;;19.20;47.40;;;;;;6175130;28;20030;-68
2022/02/17 09:43:52;;;;;;;4.22;1.10;;;19.20;47.40;;;;;;6152487;28;20446;-68
2022/02/17 09:46:54;;;;;;;7.25;1.27;;;19.20;47.40;;;;;;6174683;28;20031;-68
2022/02/17 09:49:55;;;;;;;3.72;1.35;;;19.20;47.40;;;;;;6173616;28;20027;-68
2022/02/17 09:52:55;;;;;;;2.67;1.08;;;19.20;47.50;;;;;;6174472;28;20031;-68
2022/02/17 09:55:56;;;;;;;4.53;1.42;;;19.20;47.40;;;;;;6174304;28;20050;-68
2022/02/17 09:58:57;;;;;;;4.38;1.48;;;19.20;47.60;;;;;;6175070;28;20030;-68
2022/02/17 10:01:59;;;;;;;2.60;0.80;;;19.20;47.50;;;;;;6174362;28;20062;-68
2022/02/17 10:05:04;;;;;;;6.40;1.58;;;19.20;47.60;;;;;;6174507;28;20093;-68
2022/02/17 10:08:20;;;;;;;2.63;0.90;;;19.20;47.70;;;;;;6174040;28;20302;-67
2022/02/17 10:11:29;;;;;;;3.60;1.10;;;19.20;47.80;;;;;;6174380;28;20015;-68
2022/02/17 10:14:30;;;;;;;3.33;1.20;;;19.20;47.70;;;;;;6174159;28;20034;-68
2022/02/17 10:17:30;;;;;;;3.15;1.10;;;19.20;47.70;;;;;;6174004;28;20038;-68
2022/02/17 10:20:52;;;;;;;4.28;1.40;;;19.20;47.60;;;;;;6174241;28;20046;-68
2022/02/17 10:23:53;;;;;;;2.97;1.13;;;19.20;47.60;;;;;;6158765;28;20039;-68
2022/02/17 10:27:00;;;;;;;5.88;1.30;;;19.20;47.70;;;;;;6150122;28;20038;-68
2022/02/17 10:30:13;;;;;;;2.40;1.20;;;19.20;47.70;;;;;;6150714;28;20023;-68
2022/02/17 10:33:13;;;;;;;4.10;1.13;;;19.20;48.40;;;;;;6160456;28;20066;-68
2022/02/17 10:36:14;;;;;;;2.00;0.80;;;19.20;47.70;;;;;;6173973;28;20022;-68
2022/02/17 10:39:19;;;;;;;2.70;1.20;;;19.20;47.70;;;;;;6173986;28;20486;-68
2022/02/17 10:42:20;;;;;;;2.17;0.90;;;19.20;47.70;;;;;;6162447;28;20035;-68
2022/02/17 10:45:23;;;;;;;3.28;1.20;;;19.20;47.70;;;;;;6170992;28;20486;-68
2022/02/17 10:48:27;;;;;;;2.40;1.00;;;19.20;47.70;;;;;;6173644;28;20162;-68
2022/02/17 10:51:30;;;;;;;3.97;1.40;;;19.20;47.70;;;;;;6173780;28;20026;-68
2022/02/17 10:54:30;;;;;;;3.85;0.98;;;19.20;47.60;;;;;;6173268;28;20227;-68
2022/02/17 10:57:31;;;;;;;6.97;1.20;;;19.20;47.70;;;;;;6173875;28;20436;-68
2022/02/17 11:00:31;;;;;;;2.13;0.88;;;19.20;47.70;;;;;;6172322;28;20030;-68
2022/02/17 11:03:34;;;;;;;1.98;0.63;;;19.20;47.70;;;;;;6172557;28;20023;-68
2022/02/17 11:06:39;;;;;;;2.08;1.08;;;19.20;47.70;;;;;;6173181;28;20090;-68
2022/02/17 11:09:40;;;;;;;1.93;0.70;;;19.20;47.70;;;;;;6173620;28;20468;-68
2022/02/17 11:12:42;;;;;;;2.15;0.85;;;19.20;47.70;;;;;;6172679;28;20355;-67
2022/02/17 11:15:44;;;;;;;3.53;1.17;;;19.20;47.70;;;;;;6172709;28;20397;-68
2022/02/17 11:18:45;;;;;;;4.18;1.10;;;19.20;47.70;;;;;;6172837;28;20034;-68
2022/02/17 11:21:46;;;;;;;2.85;0.93;;;19.20;47.60;;;;;;6172784;28;20371;-68
2022/02/17 11:24:51;;;;;;;4.45;1.80;;;19.20;47.70;;;;;;6172844;28;20054;-68
2022/02/17 11:28:02;;;;;;;2.60;0.90;;;19.20;47.60;;;;;;6172458;28;20462;-68
2022/02/17 11:31:08;;;;;;;1.15;0.70;;;19.20;47.70;;;;;;6172721;28;20545;-68
2022/02/17 11:34:10;;;;;;;2.22;0.70;;;19.20;47.60;;;;;;6171163;28;20051;-68
2022/02/17 11:37:22;;;;;;;2.80;0.98;;;19.20;47.60;;;;;;6172322;28;20125;-68
2022/02/17 11:40:23;;;;;;;4.82;0.80;;;19.20;47.60;;;;;;6173008;28;20081;-68
2022/02/17 11:43:28;;;;;;;3.15;1.08;;;19.20;47.50;;;;;;6171985;28;20544;-68
2022/02/17 11:46:40;;;;;;;;;;;19.20;47.60;;;;;;6172542;28;20023;-68
2022/02/17 11:49:44;;;;;;;2.00;0.88;;;19.20;47.60;;;;;;6172647;28;20004;-68
2022/02/17 11:53:24;;;;;;;2.15;0.98;;;19.20;47.60;;;;;;6171695;28;20035;-68
2022/02/17 11:56:24;;;;;;;1.95;0.80;;;19.20;47.70;;;;;;6172119;28;20453;-68
2022/02/17 11:59:29;;;;;;;2.03;0.95;;;19.20;47.60;;;;;;6172604;28;20034;-68
2022/02/17 12:02:43;;;;;;;2.67;1.00;;;19.20;47.60;;;;;;6171714;28;20015;-68
2022/02/17 12:05:44;;;;;;;2.45;1.00;;;19.20;47.60;;;;;;6171503;28;20081;-68
2022/02/17 12:08:53;;;;;;;6.28;1.33;;;19.20;47.60;;;;;;6172099;28;20022;-68
2022/02/17 12:11:54;;;;;;;1.77;0.90;;;19.20;47.60;;;;;;6172466;28;20060;-68
2022/02/17 12:15:00;;;;;;;1.27;0.80;;;19.20;47.50;;;;;;6171687;28;20034;-68
2022/02/17 12:18:01;;;;;;;2.13;0.93;;;19.20;47.40;;;;;;6171380;28;20486;-68
2022/02/17 12:21:01;;;;;;;3.33;1.00;;;19.20;47.50;;;;;;6170242;28;20047;-67
2022/02/17 12:24:03;;;;;;;1.73;0.88;;;19.20;47.50;;;;;;6167316;28;20054;-68
2022/02/17 12:27:04;;;;;;;2.63;0.77;;;19.20;47.40;;;;;;6171180;28;20030;-68
2022/02/17 12:30:05;;;;;;;1.40;0.70;;;19.20;47.40;;;;;;6170806;28;20038;-68
2022/02/17 12:33:18;;;;;;;2.53;0.80;;;19.20;47.50;;;;;;6169064;28;20459;-68
2022/02/17 12:36:18;;;;;;;1.67;0.73;;;19.20;47.50;;;;;;6171232;28;20490;-68
2022/02/17 12:39:20;;;;;;;3.55;0.98;;;19.20;47.70;;;;;;6170720;28;20026;-68
2022/02/17 12:42:21;;;;;;;1.83;0.63;;;19.20;47.70;;;;;;6158593;28;20093;-70
2022/02/17 12:45:36;;;;;;;2.45;0.98;;;19.20;47.60;;;;;;6145886;29;20513;-68
2022/02/17 12:48:38;;;;;;;3.03;0.85;;;19.20;47.70;;;;;;6145037;29;20655;-68
2022/02/17 12:51:39;;;;;;;2.40;0.80;;;19.20;47.70;;;;;;6145927;28;20070;-68
2022/02/17 12:54:42;;;;;;;1.95;0.60;;;19.20;47.70;;;;;;6146308;29;20062;-68
2022/02/17 12:57:53;;;;;;;1.92;0.63;;;19.20;47.70;;;;;;6146462;29;20414;-68
2022/02/17 13:00:53;;;;;;;4.65;0.80;;;19.20;47.70;;;;;;6150973;29;20460;-68
2022/02/17 13:03:54;;;;;;;1.17;0.60;;;19.20;47.70;;;;;;6150973;29;20031;-70
2022/02/17 13:07:04;;;;;;;5.43;0.73;;;19.20;47.80;;;;;;6162191;28;20122;-68
2022/02/17 13:10:04;;;;;;;6.20;0.75;;;19.20;47.80;;;;;;6175406;28;20030;-68
2022/02/17 13:13:05;;;;;;;2.35;0.70;;;19.20;48.10;;;;;;6174570;28;20065;-68
2022/02/17 13:16:06;;;;;;;3.80;0.80;;;19.20;47.90;;;;;;6175198;28;20034;-68
2022/02/17 13:19:25;;;;;;;1.65;0.80;;;19.10;48.00;;;;;;6184679;28;20315;-68
2022/02/17 13:22:38;;;;;;;1.40;0.63;;;19.20;47.90;;;;;;6165141;28;20062;-67
2022/02/17 13:25:39;;;;;;;3.75;0.65;;;19.20;47.80;;;;;;6146132;28;20165;-68
2022/02/17 13:28:49;;;;;;;11.55;1.08;;;19.30;47.60;;;;;;6165650;28;20062;-67
2022/02/17 13:31:50;;;;;;;3.42;0.70;;;19.30;47.90;;;;;;6174705;28;20030;-68
2022/02/17 13:35:06;;;;;;;5.18;0.82;;;19.30;47.90;;;;;;6173666;28;20565;-68
2022/02/17 13:38:08;;;;;;;2.25;0.70;;;19.40;48.50;;;;;;6174491;28;20031;-68
2022/02/17 13:41:11;;;;;;;5.15;1.23;;;19.50;47.00;;;;;;6174283;28;20023;-69
2022/02/17 13:44:12;;;;;;;1.77;0.80;;;19.60;47.10;;;;;;6174169;28;20034;-68
2022/02/17 13:47:14;;;;;;;4.68;0.80;;;19.70;46.80;;;;;;6174980;28;20485;-68
2022/02/17 13:50:18;;;;;;;5.57;0.88;;;19.60;47.00;;;;;;6174117;28;20019;-68
2022/02/17 13:53:19;;;;;;;2.28;0.70;;;19.60;47.80;;;;;;6173610;28;20328;-69
2022/02/17 13:56:23;;;;;;;2.13;0.82;;;19.50;47.60;;;;;;6173529;28;20446;-69
2022/02/17 13:59:25;;;;;;;5.38;0.90;;;19.50;47.50;;;;;;6173954;28;20097;-68
2022/02/17 14:02:28;;;;;;;2.63;0.70;;;19.50;47.50;;;;;;6172623;28;20031;-67
2022/02/17 14:05:31;;;;;;;2.17;0.80;;;19.50;48.40;;;;;;6174096;28;20429;-67
2022/02/17 14:08:32;;;;;;;1.63;0.80;;;19.60;47.40;;;;;;6149700;28;20067;-67
2022/02/17 14:11:33;;;;;;;2.50;0.73;;;19.60;47.60;;;;;;6147996;28;20023;-68
2022/02/17 14:14:33;;;;;;;3.20;0.98;;;19.60;47.60;;;;;;6155879;28;20038;-67
2022/02/17 14:17:34;;;;;;;2.10;0.70;;;19.50;47.40;;;;;;6173117;28;20101;-68
2022/02/17 14:20:35;;;;;;;2.00;0.50;;;19.50;47.50;;;;;;6173483;28;20105;-68
2022/02/17 14:23:36;;;;;;;1.70;0.57;;;19.50;47.50;;;;;;6171477;28;20375;-68
2022/02/17 14:26:37;;;;;;;0.63;0.30;;;19.50;47.50;;;;;;6158292;28;20042;-68
2022/02/17 14:29:37;;;;;;;1.48;0.70;;;19.50;47.60;;;;;;6173298;28;20090;-68
2022/02/17 14:32:38;;;;;;;0.82;0.50;;;19.50;47.60;;;;;;6167143;28;20043;-68
2022/02/17 14:35:40;;;;;;;2.45;0.77;;;19.50;47.60;;;;;;6149147;28;20058;-68
2022/02/17 14:38:41;;;;;;;1.65;0.68;;;19.50;47.50;;;;;;6149022;28;20486;-68
2022/02/17 14:41:41;;;;;;;1.77;0.70;;;19.50;47.30;;;;;;6148724;28;20485;-67
2022/02/17 14:44:42;;;;;;;6.15;1.48;;;19.50;47.70;;;;;;6149124;29;20046;-67
2022/02/17 14:47:43;;;;;;;5.32;1.30;;;19.50;45.50;;;;;;6149099;29;20031;-67
2022/02/17 14:50:44;;;;;;;3.92;1.45;;;19.50;44.70;;;;;;6149164;29;20031;-67
2022/02/17 14:53:45;;;;;;;4.65;1.50;;;19.40;43.90;;;;;;6148331;29;20043;-67
2022/02/17 14:56:45;;;;;;;5.05;1.75;;;19.50;43.60;;;;;;6148964;29;20163;-68
2022/02/17 14:59:46;;;;;;;5.22;1.55;;;19.40;43.50;;;;;;6148553;29;20525;-68
2022/02/17 15:02:46;;;;;;;5.90;1.50;;;19.40;43.60;;;;;;6148485;29;20035;-68
2022/02/17 15:05:48;;;;;;;5.20;1.80;;;19.50;43.40;;;;;;6150626;28;20023;-68
2022/02/17 15:08:48;;;;;;;2.88;1.33;;;19.40;43.20;;;;;;6172346;28;20046;-68
2022/02/17 15:11:49;;;;;;;5.35;1.50;;;19.40;42.60;;;;;;6171894;28;20105;-68
2022/02/17 15:14:49;;;;;;;6.82;1.65;;;19.40;42.40;;;;;;6171842;28;20109;-67
2022/02/17 15:17:50;;;;;;;6.35;1.67;;;19.40;43.90;;;;;;6172384;28;20082;-67
2022/02/17 15:20:50;;;;;;;3.45;1.15;;;19.40;42.90;;;;;;6172152;28;20109;-67
2022/02/17 15:23:51;;;;;;;5.45;1.27;;;19.40;42.80;;;;;;6171004;28;20058;-66
2022/02/17 15:26:51;;;;;;;7.22;1.77;;;19.40;43.20;;;;;;6171908;28;20486;-67
2022/02/17 15:29:52;;;;;;;8.70;1.40;;;19.40;43.00;;;;;;6171555;28;20415;-67
2022/02/17 15:32:54;;;;;;;6.55;1.67;;;19.40;43.10;;;;;;6171795;28;20081;-68
2022/02/17 15:35:54;;;;;;;5.65;1.85;;;19.40;43.50;;;;;;6171832;28;20384;-66
2022/02/17 15:38:55;;;;;;;8.73;1.50;;;19.40;43.40;;;;;;6171694;28;20360;-68
2022/02/17 15:42:00;;;;;;;4.38;1.63;;;19.40;43.10;;;;;;6171187;28;20426;-66
2022/02/17 15:45:02;;;;;;;6.05;1.35;;;19.40;43.10;;;;;;6171579;28;20037;-67
2022/02/17 15:48:05;;;;;;;5.63;1.27;;;19.40;42.60;;;;;;6171953;28;20026;-64